createdAt,value
2019-02-19T00:01:11.566Z,13.77
2019-02-19T00:03:40.153Z,10.23
2019-02-19T00:06:08.461Z,12.67
2019-02-19T00:08:36.742Z,11.27
2019-02-19T00:11:05.021Z,12.83
2019-02-19T00:13:33.673Z,10.20
2019-02-19T00:16:01.948Z,11.80
2019-02-19T00:18:30.264Z,9.07
2019-02-19T00:20:58.522Z,11.07
2019-02-19T00:23:26.795Z,9.53
2019-02-19T00:25:55.067Z,9.20
2019-02-19T00:28:23.367Z,12.07
2019-02-19T00:30:51.715Z,10.47
2019-02-19T00:33:19.999Z,11.80
2019-02-19T00:35:48.299Z,11.13
2019-02-19T00:38:16.582Z,11.33
2019-02-19T00:40:44.861Z,7.87
2019-02-19T00:43:13.163Z,10.17
2019-02-19T00:45:41.432Z,9.87
2019-02-19T00:48:09.712Z,14.93
2019-02-19T00:50:38.003Z,9.47
2019-02-19T00:53:06.280Z,7.33
2019-02-19T00:55:34.576Z,7.83
2019-02-19T00:58:02.856Z,7.07
2019-02-19T01:00:31.144Z,8.23
2019-02-19T01:02:59.805Z,12.00
2019-02-19T01:05:28.104Z,8.13
2019-02-19T01:07:56.377Z,9.43
2019-02-19T01:10:24.899Z,8.73
2019-02-19T01:12:53.538Z,10.83
2019-02-19T01:15:25.566Z,6.97
2019-02-19T01:17:52.142Z,9.37
2019-02-19T01:20:20.475Z,6.10
2019-02-19T01:22:48.764Z,9.87
2019-02-19T01:25:17.045Z,6.83
2019-02-19T01:27:45.330Z,7.33
2019-02-19T01:30:13.943Z,12.70
2019-02-19T01:32:42.229Z,6.00
2019-02-19T01:35:10.585Z,6.77
2019-02-19T01:37:39.132Z,8.37
2019-02-19T01:40:09.049Z,7.20
2019-02-19T01:42:37.339Z,7.17
2019-02-19T01:45:08.029Z,8.57
2019-02-19T01:47:36.316Z,8.50
2019-02-19T01:50:06.933Z,9.57
2019-02-19T01:52:35.583Z,7.30
2019-02-19T01:55:05.607Z,8.43
2019-02-19T01:57:33.895Z,6.50
2019-02-19T02:00:02.452Z,6.37
2019-02-19T02:02:30.767Z,6.53
2019-02-19T02:04:59.316Z,6.53
2019-02-19T02:07:27.902Z,6.30
2019-02-19T02:09:56.491Z,7.20
2019-02-19T02:12:24.769Z,11.83
2019-02-19T02:14:53.341Z,10.23
2019-02-19T02:17:21.619Z,6.13
2019-02-19T02:19:49.906Z,6.43
2019-02-19T02:22:18.182Z,8.87
2019-02-19T02:24:46.467Z,9.23
2019-02-19T02:27:14.761Z,6.43
2019-02-19T02:29:43.310Z,7.23
2019-02-19T02:32:11.893Z,7.67
2019-02-19T02:34:40.195Z,7.07
2019-02-19T02:37:08.464Z,5.83
2019-02-19T02:39:37.033Z,5.47
2019-02-19T02:42:05.314Z,7.33
2019-02-19T02:44:33.622Z,7.40
2019-02-19T02:47:01.911Z,6.83
2019-02-19T02:49:30.169Z,8.63
2019-02-19T02:51:58.465Z,5.77
2019-02-19T02:54:26.750Z,7.83
2019-02-19T02:56:55.028Z,6.90
2019-02-19T02:59:23.322Z,6.50
2019-02-19T03:01:51.600Z,6.40
2019-02-19T03:04:20.229Z,8.37
2019-02-19T03:06:50.145Z,7.03
2019-02-19T03:09:18.427Z,5.87
2019-02-19T03:11:46.719Z,9.37
2019-02-19T03:14:15.002Z,8.17
2019-02-19T03:16:43.287Z,8.97
2019-02-19T03:19:11.571Z,6.23
2019-02-19T03:21:39.847Z,6.40
2019-02-19T03:24:08.119Z,6.50
2019-02-19T03:26:36.407Z,6.20
2019-02-19T03:29:04.685Z,7.37
2019-02-19T03:31:32.969Z,5.80
2019-02-19T03:34:01.247Z,6.00
2019-02-19T03:36:29.565Z,5.13
2019-02-19T03:38:57.854Z,7.17
2019-02-19T03:41:26.109Z,9.87
2019-02-19T03:43:54.397Z,9.17
2019-02-19T03:46:22.922Z,12.33
2019-02-19T03:48:51.225Z,14.80
2019-02-19T03:51:19.566Z,13.80
2019-02-19T03:53:47.866Z,16.93
2019-02-19T03:56:16.158Z,15.80
2019-02-19T03:58:44.462Z,18.83
2019-02-19T04:01:12.814Z,17.10
2019-02-19T04:03:41.505Z,21.17
2019-02-19T04:06:09.986Z,22.83
2019-02-19T04:08:38.277Z,21.13
2019-02-19T04:11:06.570Z,20.03
2019-02-19T04:13:34.928Z,23.47
2019-02-19T04:16:03.224Z,21.33
2019-02-19T04:18:31.520Z,21.07
2019-02-19T04:21:00.059Z,22.47
2019-02-19T04:23:28.355Z,21.37
2019-02-19T04:25:56.648Z,19.10
2019-02-19T04:28:24.945Z,21.27
2019-02-19T04:30:53.221Z,20.90
2019-02-19T04:33:21.519Z,23.77
2019-02-19T04:35:49.804Z,24.10
2019-02-19T04:38:18.393Z,23.10
2019-02-19T04:40:46.682Z,23.53
2019-02-19T04:43:14.984Z,23.20
2019-02-19T04:45:43.265Z,23.47
2019-02-19T04:48:11.561Z,22.80
2019-02-19T04:50:40.211Z,22.87
2019-02-19T04:53:08.521Z,23.03
2019-02-19T04:55:36.805Z,25.33
2019-02-19T04:58:05.111Z,24.90
2019-02-19T05:00:33.705Z,24.57
2019-02-19T05:03:02.005Z,26.57
2019-02-19T05:05:30.286Z,28.00
2019-02-19T05:07:58.576Z,25.00
2019-02-19T05:10:27.239Z,23.70
2019-02-19T05:12:55.526Z,28.80
2019-02-19T05:15:23.828Z,27.80
2019-02-19T05:17:52.105Z,27.23
2019-02-19T05:20:20.404Z,29.20
2019-02-19T05:22:48.691Z,32.60
2019-02-19T05:25:16.992Z,27.90
2019-02-19T05:27:45.312Z,26.17
2019-02-19T05:30:13.645Z,30.03
2019-02-19T05:32:41.935Z,25.27
2019-02-19T05:35:10.319Z,26.10
2019-02-19T05:37:38.589Z,28.80
2019-02-19T05:40:08.827Z,27.67
2019-02-19T05:42:37.107Z,29.60
2019-02-19T05:45:08.931Z,27.40
2019-02-19T05:47:37.217Z,28.77
2019-02-19T05:50:08.065Z,29.23
2019-02-19T05:52:36.629Z,30.87
2019-02-19T05:55:06.948Z,30.07
2019-02-19T05:57:35.274Z,30.57
2019-02-19T06:00:05.297Z,31.50
2019-02-19T06:02:33.601Z,30.70
2019-02-19T06:05:01.894Z,31.33
2019-02-19T06:07:30.191Z,33.60
2019-02-19T06:09:58.778Z,39.30
2019-02-19T06:12:27.344Z,34.50
2019-02-19T06:14:55.630Z,34.63
2019-02-19T06:17:24.206Z,35.53
2019-02-19T06:19:52.487Z,34.10
2019-02-19T06:22:21.182Z,34.27
2019-02-19T06:24:49.465Z,31.43
2019-02-19T06:27:17.769Z,34.53
2019-02-19T06:29:46.426Z,31.80
2019-02-19T06:32:14.711Z,33.53
2019-02-19T06:34:43.004Z,34.63
2019-02-19T06:37:11.297Z,33.40
2019-02-19T06:39:39.596Z,33.17
2019-02-19T06:42:08.198Z,33.83
2019-02-19T06:44:36.783Z,32.20
2019-02-19T06:47:07.138Z,33.83
2019-02-19T06:49:35.800Z,26.20
2019-02-19T06:52:04.084Z,30.03
2019-02-19T06:54:32.387Z,28.00
2019-02-19T06:57:00.677Z,30.80
2019-02-19T06:59:28.983Z,31.47
2019-02-19T07:02:04.773Z,29.97
2019-02-19T07:04:34.762Z,31.33
2019-02-19T07:07:03.047Z,27.27
2019-02-19T07:09:31.346Z,26.67
2019-02-19T07:11:59.633Z,25.03
2019-02-19T07:14:27.937Z,29.13
2019-02-19T07:16:56.222Z,30.00
2019-02-19T07:19:24.522Z,26.47
2019-02-19T07:21:52.810Z,28.77
2019-02-19T07:24:21.111Z,25.53
2019-02-19T07:26:49.664Z,23.03
2019-02-19T07:29:18.488Z,25.43
2019-02-19T07:31:46.779Z,25.17
2019-02-19T07:34:15.081Z,24.57
2019-02-19T07:36:43.372Z,24.60
2019-02-19T07:39:11.754Z,27.13
2019-02-19T07:41:40.347Z,23.37
2019-02-19T07:44:08.653Z,28.57
2019-02-19T07:46:36.932Z,24.93
2019-02-19T07:49:05.500Z,26.93
2019-02-19T07:51:34.076Z,28.30
2019-02-19T07:54:02.795Z,27.30
2019-02-19T07:56:31.093Z,28.07
2019-02-19T07:58:59.387Z,20.03
2019-02-19T08:01:28.018Z,24.97
2019-02-19T08:03:56.301Z,26.63
2019-02-19T08:06:24.854Z,23.10
2019-02-19T08:08:53.456Z,28.27
2019-02-19T08:11:21.762Z,27.47
2019-02-19T08:13:50.044Z,22.90
2019-02-19T08:16:19.047Z,21.63
2019-02-19T08:18:47.405Z,20.20
2019-02-19T08:21:15.716Z,26.60
2019-02-19T08:23:44.007Z,20.97
2019-02-19T08:26:12.320Z,23.07
2019-02-19T08:28:40.591Z,22.13
2019-02-19T08:31:09.142Z,21.43
2019-02-19T08:33:37.708Z,23.50
2019-02-19T08:36:06.250Z,24.90
2019-02-19T08:38:34.821Z,25.53
2019-02-19T08:41:03.105Z,21.57
2019-02-19T08:43:31.397Z,21.30
2019-02-19T08:45:59.682Z,17.57
2019-02-19T08:48:28.044Z,20.40
2019-02-19T08:50:56.329Z,17.90
2019-02-19T08:53:24.631Z,18.43
2019-02-19T08:55:52.917Z,22.37
2019-02-19T08:58:21.230Z,21.27
2019-02-19T09:00:49.523Z,15.60
2019-02-19T09:03:18.191Z,19.93
2019-02-19T09:05:46.478Z,22.53
2019-02-19T09:08:14.786Z,17.90
2019-02-19T09:10:43.079Z,23.40
2019-02-19T09:13:11.399Z,20.13
2019-02-19T09:15:39.670Z,19.07
2019-02-19T09:18:07.987Z,21.63
2019-02-19T09:20:36.890Z,19.20
2019-02-19T09:23:05.238Z,20.57
2019-02-19T09:25:33.541Z,20.07
2019-02-19T09:28:01.893Z,22.30
2019-02-19T09:30:30.204Z,16.40
2019-02-19T09:32:58.831Z,19.10
2019-02-19T09:35:27.415Z,15.07
2019-02-19T09:37:55.712Z,16.47
2019-02-19T09:40:24.020Z,17.50
2019-02-19T09:42:52.307Z,18.53
2019-02-19T09:45:20.609Z,17.60
2019-02-19T09:47:48.905Z,16.70
2019-02-19T09:50:17.482Z,16.00
2019-02-19T09:52:45.768Z,20.77
2019-02-19T09:55:14.081Z,19.93
2019-02-19T09:57:42.405Z,14.80
2019-02-19T10:00:13.024Z,15.90
2019-02-19T10:02:41.308Z,14.73
2019-02-19T10:05:11.553Z,14.27
2019-02-19T10:07:39.909Z,18.67
2019-02-19T10:10:11.439Z,12.23
2019-02-19T10:12:39.731Z,16.70
2019-02-19T10:15:11.134Z,13.93
2019-02-19T10:17:39.427Z,16.30
2019-02-19T10:20:10.119Z,13.33
2019-02-19T10:22:38.700Z,16.53
2019-02-19T10:25:12.002Z,12.37
2019-02-19T10:27:40.290Z,15.43
2019-02-19T10:30:16.324Z,8.80
2019-02-19T10:32:44.906Z,9.47
2019-02-19T10:35:13.259Z,14.10
2019-02-19T10:37:41.536Z,7.30
2019-02-19T10:40:17.696Z,10.30
2019-02-19T10:42:45.990Z,9.13
2019-02-19T10:45:19.981Z,10.33
2019-02-19T10:47:48.263Z,8.03
2019-02-19T10:50:17.004Z,11.43
2019-02-19T10:52:45.553Z,7.20
2019-02-19T10:55:14.028Z,6.73
2019-02-19T10:57:42.309Z,9.20
2019-02-19T11:00:19.212Z,9.93
2019-02-19T11:02:47.523Z,8.33
2019-02-19T11:05:15.956Z,10.30
2019-02-19T11:07:44.244Z,11.80
2019-02-19T11:10:13.777Z,7.23
2019-02-19T11:12:42.059Z,6.00
2019-02-19T11:15:12.276Z,9.43
2019-02-19T11:17:40.819Z,11.13
2019-02-19T11:20:15.132Z,6.40
2019-02-19T11:22:43.434Z,11.73
2019-02-19T11:25:12.816Z,8.67
2019-02-19T11:27:41.516Z,8.77
2019-02-19T11:30:15.940Z,12.87
2019-02-19T11:32:44.309Z,7.80
2019-02-19T11:35:12.648Z,8.47
2019-02-19T11:37:40.942Z,8.40
2019-02-19T11:40:11.561Z,9.63
2019-02-19T11:42:39.930Z,6.90
2019-02-19T11:45:18.482Z,8.37
2019-02-19T11:47:46.786Z,12.07
2019-02-19T11:50:15.208Z,10.47
2019-02-19T11:52:43.502Z,7.57
2019-02-19T11:55:17.005Z,5.77
2019-02-19T11:57:45.307Z,9.00
2019-02-19T12:00:16.764Z,7.13
2019-02-19T12:02:45.062Z,10.03
2019-02-19T12:05:13.421Z,11.00
2019-02-19T12:07:41.702Z,9.53
2019-02-19T12:10:11.938Z,11.53
2019-02-19T12:12:40.427Z,10.30
2019-02-19T12:15:10.666Z,11.17
2019-02-19T12:17:38.945Z,9.13
2019-02-19T12:20:13.784Z,10.20
2019-02-19T12:22:42.074Z,8.93
2019-02-19T12:25:10.981Z,7.93
2019-02-19T12:27:39.287Z,9.60
2019-02-19T12:30:13.034Z,10.63
2019-02-19T12:32:41.290Z,7.40
2019-02-19T12:35:10.346Z,7.73
2019-02-19T12:37:38.648Z,7.20
2019-02-19T12:40:09.784Z,8.43
2019-02-19T12:42:38.070Z,11.83
2019-02-19T12:45:08.911Z,8.63
2019-02-19T12:47:37.554Z,13.03
2019-02-19T12:50:09.303Z,6.57
2019-02-19T12:52:37.895Z,9.13
2019-02-19T12:55:07.409Z,6.73
2019-02-19T12:57:36.870Z,6.73
2019-02-19T13:00:08.675Z,6.23
2019-02-19T13:02:36.959Z,7.80
2019-02-19T13:05:07.270Z,4.83
2019-02-19T13:07:36.920Z,7.87
2019-02-19T13:10:08.421Z,7.67
2019-02-19T13:12:36.715Z,5.07
2019-02-19T13:15:14.116Z,5.70
2019-02-19T13:17:42.668Z,7.97
2019-02-19T13:20:13.213Z,8.50
2019-02-19T13:22:41.572Z,5.93
2019-02-19T13:25:11.533Z,5.13
2019-02-19T13:27:39.900Z,8.13
2019-02-19T13:30:14.247Z,4.70
2019-02-19T13:32:42.548Z,7.27
2019-02-19T13:35:12.250Z,6.53
2019-02-19T13:37:40.866Z,9.00
2019-02-19T13:40:11.903Z,6.20
2019-02-19T13:42:40.204Z,7.80
2019-02-19T13:45:11.130Z,11.27
2019-02-19T13:47:39.420Z,7.80
2019-02-19T13:50:10.873Z,7.47
2019-02-19T13:52:40.812Z,9.00
2019-02-19T13:55:10.733Z,8.30
2019-02-19T13:57:39.376Z,7.00
2019-02-19T14:00:11.319Z,7.47
2019-02-19T14:02:39.594Z,4.90
2019-02-19T14:05:08.651Z,10.83
2019-02-19T14:07:37.281Z,10.03
2019-02-19T14:10:08.874Z,9.47
2019-02-19T14:12:37.523Z,10.47
2019-02-19T14:15:10.183Z,6.07
2019-02-19T14:17:38.486Z,6.57
2019-02-19T14:20:09.639Z,6.17
2019-02-19T14:22:51.463Z,6.87
2019-02-19T14:25:27.282Z,7.70
2019-02-19T14:28:06.140Z,9.93
2019-02-19T14:30:38.557Z,8.83
2019-02-19T14:33:23.533Z,6.43
2019-02-19T14:36:08.521Z,8.00
2019-02-19T14:38:38.457Z,6.80
2019-02-19T14:41:17.201Z,5.40
2019-02-19T14:43:53.196Z,7.47
2019-02-19T14:46:39.545Z,6.70
2019-02-19T14:49:09.532Z,8.87
2019-02-19T14:51:55.586Z,8.60
2019-02-19T14:54:42.314Z,10.77
2019-02-19T14:57:18.193Z,8.30
2019-02-19T14:59:54.749Z,10.23
2019-02-19T15:02:24.684Z,6.47
2019-02-19T15:04:54.883Z,10.80
2019-02-19T15:07:27.262Z,6.93
2019-02-19T15:10:13.304Z,5.13
2019-02-19T15:13:00.080Z,6.67
2019-02-19T15:15:33.043Z,7.77
2019-02-19T15:18:12.374Z,10.00
2019-02-19T15:20:53.857Z,5.97
2019-02-19T15:23:23.795Z,9.13
2019-02-19T15:25:59.735Z,13.00
2019-02-19T15:28:35.421Z,7.60
2019-02-19T15:31:22.101Z,5.27
2019-02-19T15:33:54.711Z,6.23
2019-02-19T15:36:30.352Z,7.73
2019-02-19T15:39:02.763Z,7.37
2019-02-19T15:41:32.945Z,10.43
2019-02-19T15:44:08.866Z,7.70
2019-02-19T15:46:41.287Z,8.40
2019-02-19T15:49:11.228Z,7.87
2019-02-19T15:51:55.879Z,11.33
2019-02-19T15:54:41.045Z,5.07
2019-02-19T15:57:13.680Z,5.90
2019-02-19T15:59:59.877Z,6.97
2019-02-19T16:02:32.554Z,9.53
2019-02-19T16:05:18.035Z,12.07
2019-02-19T16:07:48.270Z,9.63
2019-02-19T16:10:30.367Z,6.07
2019-02-19T16:13:09.517Z,7.60
2019-02-19T16:15:48.307Z,7.20
2019-02-19T16:18:23.841Z,8.57
2019-02-19T16:20:54.077Z,6.90
2019-02-19T16:23:23.996Z,8.33
2019-02-19T16:25:56.688Z,9.10
2019-02-19T16:28:35.134Z,9.33
2019-02-19T16:31:21.408Z,7.50
2019-02-19T16:34:07.571Z,10.47
2019-02-19T16:36:43.424Z,10.27
2019-02-19T16:39:30.034Z,5.70
2019-02-19T16:42:16.967Z,13.33
2019-02-19T16:44:49.937Z,7.20
2019-02-19T16:47:25.802Z,8.87
2019-02-19T16:50:07.847Z,8.87
2019-02-19T16:52:42.625Z,10.30
2019-02-19T16:55:24.378Z,9.10
2019-02-19T16:57:57.298Z,4.63
2019-02-19T17:00:39.312Z,11.30
2019-02-19T17:03:09.321Z,33.93
2019-02-19T17:05:48.008Z,28.37
2019-02-19T17:08:20.643Z,14.37
2019-02-19T17:10:53.611Z,15.93
2019-02-19T17:13:26.775Z,20.37
2019-02-19T17:16:13.177Z,17.37
2019-02-19T17:18:43.120Z,14.40
2019-02-19T17:21:22.193Z,15.53
2019-02-19T17:23:52.111Z,10.83
2019-02-19T17:26:27.975Z,6.63
2019-02-19T17:28:57.890Z,9.57
2019-02-19T17:31:33.281Z,9.37
2019-02-19T17:34:03.195Z,9.37
2019-02-19T17:36:33.230Z,9.67
2019-02-19T17:39:12.026Z,14.13
2019-02-19T17:41:44.651Z,14.83
2019-02-19T17:44:17.561Z,17.10
2019-02-19T17:46:53.750Z,25.93
2019-02-19T17:49:38.451Z,23.97
2019-02-19T17:52:25.067Z,14.40
2019-02-19T17:55:04.046Z,11.17
2019-02-19T17:57:42.771Z,13.00
2019-02-19T18:00:29.382Z,11.00
2019-02-19T18:03:05.314Z,11.83
2019-02-19T18:05:41.021Z,6.93
2019-02-19T18:08:16.680Z,15.87
2019-02-19T18:10:46.605Z,10.87
2019-02-19T18:13:16.548Z,12.37
2019-02-19T18:15:46.474Z,9.47
2019-02-19T18:18:27.982Z,10.27
2019-02-19T18:20:56.275Z,8.53
2019-02-19T18:23:24.586Z,8.77
2019-02-19T18:25:53.132Z,8.43
2019-02-19T18:28:21.423Z,16.37
2019-02-19T18:30:49.755Z,10.80
2019-02-19T18:33:18.297Z,9.63
2019-02-19T18:35:47.259Z,9.23
2019-02-19T18:38:15.546Z,12.77
2019-02-19T18:40:43.869Z,17.13
2019-02-19T18:43:12.139Z,8.60
2019-02-19T18:45:40.464Z,14.33
2019-02-19T18:48:09.046Z,11.87
2019-02-19T18:50:37.336Z,10.47
2019-02-19T18:53:05.622Z,8.53
2019-02-19T18:55:34.263Z,9.00
2019-02-19T18:58:02.575Z,10.97
2019-02-19T19:00:30.876Z,8.07
2019-02-19T19:02:59.500Z,18.23
2019-02-19T19:05:27.829Z,14.93
2019-02-19T19:07:56.110Z,12.13
2019-02-19T19:10:24.401Z,13.43
2019-02-19T19:12:52.702Z,11.33
2019-02-19T19:15:20.994Z,43.80
2019-02-19T19:17:49.351Z,13.10
2019-02-19T19:20:17.653Z,11.23
2019-02-19T19:22:47.123Z,8.47
2019-02-19T19:25:15.509Z,13.07
2019-02-19T19:27:43.792Z,11.57
2019-02-19T19:30:15.949Z,9.90
2019-02-19T19:32:44.470Z,13.03
2019-02-19T19:35:12.776Z,8.60
2019-02-19T19:37:41.053Z,10.47
2019-02-19T19:40:13.682Z,10.77
2019-02-19T19:42:41.957Z,11.23
2019-02-19T19:45:12.074Z,9.07
2019-02-19T19:47:40.348Z,7.17
2019-02-19T19:50:12.080Z,10.47
2019-02-19T19:52:40.694Z,11.57
2019-02-19T19:55:10.598Z,10.30
2019-02-19T19:57:38.878Z,10.23
2019-02-19T20:00:10.056Z,9.23
2019-02-19T20:02:39.139Z,12.67
2019-02-19T20:05:09.298Z,12.50
2019-02-19T20:07:37.608Z,10.73
2019-02-19T20:10:11.667Z,8.37
2019-02-19T20:12:40.432Z,9.53
2019-02-19T20:15:11.132Z,11.60
2019-02-19T20:17:41.363Z,7.47
2019-02-19T20:20:11.182Z,10.57
2019-02-19T20:22:39.572Z,10.63
2019-02-19T20:25:12.134Z,7.37
2019-02-19T20:27:40.762Z,10.10
2019-02-19T20:30:16.224Z,9.17
2019-02-19T20:32:44.556Z,16.10
2019-02-19T20:35:12.858Z,10.50
2019-02-19T20:37:41.175Z,10.37
2019-02-19T20:40:11.341Z,11.13
2019-02-19T20:42:40.231Z,9.43
2019-02-19T20:45:12.617Z,8.87
2019-02-19T20:47:40.988Z,11.50
2019-02-19T20:50:11.217Z,12.73
2019-02-19T20:52:39.881Z,13.27
2019-02-19T20:55:11.924Z,9.83
2019-02-19T20:57:40.647Z,10.47
2019-02-19T21:00:17.202Z,7.93
2019-02-19T21:02:45.755Z,11.53
2019-02-19T21:05:14.048Z,11.20
2019-02-19T21:07:42.421Z,10.23
2019-02-19T21:10:19.254Z,13.77
2019-02-19T21:12:47.567Z,9.80
2019-02-19T21:15:15.845Z,9.07
2019-02-19T21:17:44.393Z,11.93
2019-02-19T21:20:14.220Z,19.40
2019-02-19T21:22:42.536Z,10.07
2019-02-19T21:25:11.486Z,12.03
2019-02-19T21:27:39.772Z,13.87
2019-02-19T21:30:11.283Z,11.60
2019-02-19T21:32:39.675Z,12.27
2019-02-19T21:35:09.271Z,12.20
2019-02-19T21:37:38.142Z,18.07
2019-02-19T21:40:09.396Z,9.77
2019-02-19T21:42:37.958Z,13.37
2019-02-19T21:45:09.401Z,12.37
2019-02-19T21:47:37.687Z,16.03
2019-02-19T21:50:10.784Z,9.83
2019-02-19T21:52:39.078Z,12.37
2019-02-19T21:55:11.947Z,14.13
2019-02-19T21:57:40.298Z,12.57
2019-02-19T22:00:16.248Z,15.03
2019-02-19T22:02:44.808Z,10.57
2019-02-19T22:05:13.175Z,11.20
2019-02-19T22:07:41.484Z,12.07
2019-02-19T22:10:11.801Z,17.43
2019-02-19T22:12:40.083Z,11.70
2019-02-19T22:15:13.473Z,11.40
2019-02-19T22:17:41.825Z,13.70
2019-02-19T22:20:17.029Z,8.03
2019-02-19T22:22:45.313Z,13.57
2019-02-19T22:25:13.640Z,10.07
2019-02-19T22:27:42.136Z,10.87
2019-02-19T22:30:10.852Z,19.10
2019-02-19T22:32:39.138Z,15.27
2019-02-19T22:35:07.710Z,14.60
2019-02-19T22:37:35.991Z,12.47
2019-02-19T22:40:07.374Z,13.20
2019-02-19T22:42:35.916Z,14.37
2019-02-19T22:45:05.557Z,11.87
2019-02-19T22:47:33.845Z,11.47
2019-02-19T22:50:02.160Z,17.03
2019-02-19T22:52:31.203Z,12.43
2019-02-19T22:55:03.973Z,16.10
2019-02-19T22:57:32.275Z,15.47
2019-02-19T23:00:00.599Z,9.50
2019-02-19T23:02:29.502Z,12.33
2019-02-19T23:04:57.787Z,13.07
2019-02-19T23:07:26.114Z,13.43
2019-02-19T23:09:54.667Z,12.40
2019-02-19T23:12:23.338Z,14.07
2019-02-19T23:14:51.574Z,13.33
2019-02-19T23:17:19.864Z,12.33
2019-02-19T23:19:48.170Z,11.87
2019-02-19T23:22:21.637Z,15.40
2019-02-19T23:24:46.471Z,11.87
2019-02-19T23:27:14.839Z,10.00
2019-02-19T23:29:44.056Z,10.83
2019-02-19T23:32:12.340Z,14.60
2019-02-19T23:34:40.647Z,16.50
2019-02-19T23:37:09.001Z,12.90
2019-02-19T23:39:43.595Z,12.23
2019-02-19T23:42:07.984Z,16.00
2019-02-19T23:44:36.272Z,13.60
2019-02-19T23:47:04.647Z,11.47
2019-02-19T23:49:33.007Z,14.10
2019-02-19T23:52:01.308Z,12.17
2019-02-19T23:54:29.584Z,11.93
2019-02-19T23:56:58.129Z,10.47
2019-02-19T23:59:26.430Z,11.27
